createdAt,value
2018-11-29T00:00:17.148Z,81.10
2018-11-29T00:02:45.752Z,81.20
2018-11-29T00:05:14.328Z,81.30
2018-11-29T00:07:42.971Z,81.40
2018-11-29T00:10:11.522Z,81.40
2018-11-29T00:12:40.059Z,81.40
2018-11-29T00:15:10.028Z,81.30
2018-11-29T00:17:38.832Z,81.30
2018-11-29T00:20:11.255Z,81.30
2018-11-29T00:22:39.823Z,81.40
2018-11-29T00:25:09.507Z,81.40
2018-11-29T00:27:38.139Z,81.40
2018-11-29T00:30:10.103Z,81.50
2018-11-29T00:32:38.672Z,81.50
2018-11-29T00:35:08.771Z,81.60
2018-11-29T00:37:37.279Z,81.70
2018-11-29T00:40:15.335Z,81.80
2018-11-29T00:42:43.876Z,81.80
2018-11-29T00:45:14.327Z,81.90
2018-11-29T00:47:43.039Z,81.90
2018-11-29T00:50:12.399Z,81.90
2018-11-29T00:52:41.703Z,81.90
2018-11-29T00:55:11.312Z,81.90
2018-11-29T00:57:40.103Z,81.90
2018-11-29T01:00:18.094Z,82.00
2018-11-29T01:02:46.627Z,82.10
2018-11-29T01:05:15.148Z,82.10
2018-11-29T01:07:43.695Z,82.10
2018-11-29T01:10:13.243Z,82.10
2018-11-29T01:12:41.903Z,82.10
2018-11-29T01:15:16.291Z,82.00
2018-11-29T01:17:45.699Z,82.00
2018-11-29T01:20:15.118Z,82.10
2018-11-29T01:22:43.679Z,82.10
2018-11-29T01:25:14.013Z,82.00
2018-11-29T01:27:43.367Z,82.10
2018-11-29T01:30:17.580Z,82.20
2018-11-29T01:32:46.087Z,82.10
2018-11-29T01:35:15.735Z,82.10
2018-11-29T01:37:44.223Z,82.20
2018-11-29T01:40:19.348Z,82.20
2018-11-29T01:42:49.987Z,82.30
2018-11-29T01:45:18.499Z,82.30
2018-11-29T01:47:47.018Z,83.30
2018-11-29T01:50:15.555Z,82.40
2018-11-29T01:52:44.047Z,82.40
2018-11-29T01:55:12.559Z,82.40
2018-11-29T01:57:41.098Z,82.40
2018-11-29T02:00:12.846Z,82.40
2018-11-29T02:02:41.391Z,82.40
2018-11-29T02:05:11.517Z,82.30
2018-11-29T02:07:40.054Z,82.30
2018-11-29T02:10:16.987Z,82.40
2018-11-29T02:12:45.596Z,82.40
2018-11-29T02:15:14.139Z,82.40
2018-11-29T02:17:42.643Z,82.40
2018-11-29T02:20:12.609Z,82.40
2018-11-29T02:22:41.131Z,82.30
2018-11-29T02:25:09.679Z,82.30
2018-11-29T02:27:38.211Z,82.30
2018-11-29T02:30:16.361Z,82.30
2018-11-29T02:32:44.855Z,82.30
2018-11-29T02:35:13.390Z,82.20
2018-11-29T02:37:41.942Z,82.20
2018-11-29T02:40:12.484Z,82.20
2018-11-29T02:42:41.231Z,82.20
2018-11-29T02:45:12.658Z,82.70
2018-11-29T02:47:41.170Z,82.30
2018-11-29T02:50:10.755Z,82.30
2018-11-29T02:52:39.287Z,82.30
2018-11-29T02:55:09.762Z,82.30
2018-11-29T02:57:38.266Z,82.30
2018-11-29T03:00:10.716Z,82.30
2018-11-29T03:02:39.314Z,83.10
2018-11-29T03:05:07.878Z,82.30
2018-11-29T03:07:36.706Z,82.30
2018-11-29T03:10:06.498Z,82.30
2018-11-29T03:12:35.045Z,82.30
2018-11-29T03:15:03.837Z,82.30
2018-11-29T03:17:32.562Z,82.30
2018-11-29T03:20:01.078Z,82.30
2018-11-29T03:22:29.608Z,82.30
2018-11-29T03:24:58.106Z,82.30
2018-11-29T03:27:26.606Z,82.20
2018-11-29T03:29:55.105Z,82.30
2018-11-29T03:32:23.678Z,82.20
2018-11-29T03:34:52.173Z,82.30
2018-11-29T03:37:20.686Z,82.30
2018-11-29T03:39:49.196Z,82.20
2018-11-29T03:42:17.684Z,82.20
2018-11-29T03:44:46.217Z,82.10
2018-11-29T03:47:14.745Z,82.10
2018-11-29T03:49:44.141Z,82.90
2018-11-29T03:52:13.526Z,82.10
2018-11-29T03:54:42.238Z,82.10
2018-11-29T03:57:10.749Z,82.90
2018-11-29T03:59:39.237Z,82.00
2018-11-29T04:02:07.765Z,82.00
2018-11-29T04:04:36.277Z,82.00
2018-11-29T04:07:05.100Z,82.00
2018-11-29T04:09:33.596Z,82.00
2018-11-29T04:12:02.098Z,82.00
2018-11-29T04:14:30.609Z,82.00
2018-11-29T04:16:59.090Z,82.00
2018-11-29T04:19:27.629Z,81.90
2018-11-29T04:21:56.124Z,81.90
2018-11-29T04:24:24.645Z,81.90
2018-11-29T04:26:53.152Z,82.00
2018-11-29T04:29:24.644Z,82.00
2018-11-29T04:31:53.132Z,82.00
2018-11-29T04:34:21.641Z,81.90
2018-11-29T04:36:50.125Z,81.90
2018-11-29T04:39:18.644Z,81.90
2018-11-29T04:41:47.153Z,81.90
2018-11-29T04:44:15.685Z,81.90
2018-11-29T04:46:52.013Z,81.90
2018-11-29T04:49:20.537Z,81.90
2018-11-29T04:51:49.060Z,81.80
2018-11-29T04:54:17.560Z,81.90
2018-11-29T04:56:46.077Z,82.20
2018-11-29T04:59:14.587Z,81.90
2018-11-29T05:01:43.101Z,81.70
2018-11-29T05:04:11.620Z,81.70
2018-11-29T05:06:40.116Z,81.80
2018-11-29T05:09:09.868Z,81.70
2018-11-29T05:11:38.948Z,81.70
2018-11-29T05:14:07.611Z,81.70
2018-11-29T05:16:36.159Z,81.70
2018-11-29T05:19:04.706Z,81.70
2018-11-29T05:21:33.196Z,81.70
2018-11-29T05:24:01.713Z,81.70
2018-11-29T05:26:30.251Z,81.60
2018-11-29T05:28:58.791Z,81.60
2018-11-29T05:31:27.311Z,81.60
2018-11-29T05:33:55.819Z,81.50
2018-11-29T05:36:24.343Z,82.30
2018-11-29T05:38:52.848Z,81.50
2018-11-29T05:41:21.377Z,81.40
2018-11-29T05:43:49.871Z,81.50
2018-11-29T05:46:18.371Z,81.40
2018-11-29T05:48:46.855Z,81.40
2018-11-29T05:51:15.355Z,81.40
2018-11-29T05:53:43.840Z,81.40
2018-11-29T05:56:12.615Z,81.40
2018-11-29T05:58:41.111Z,81.40
2018-11-29T06:01:16.607Z,81.40
2018-11-29T06:03:45.123Z,81.40
2018-11-29T06:06:13.607Z,81.30
2018-11-29T06:08:42.126Z,81.30
2018-11-29T06:11:25.390Z,81.20
2018-11-29T06:13:53.918Z,81.20
2018-11-29T06:16:22.418Z,81.20
2018-11-29T06:18:50.919Z,81.20
2018-11-29T06:21:19.438Z,81.10
2018-11-29T06:23:47.946Z,81.10
2018-11-29T06:26:16.482Z,81.10
2018-11-29T06:28:44.982Z,81.10
2018-11-29T06:31:13.470Z,81.10
2018-11-29T06:33:41.970Z,81.10
2018-11-29T06:36:10.474Z,81.10
2018-11-29T06:38:39.009Z,81.10
2018-11-29T06:41:07.614Z,81.00
2018-11-29T06:43:36.142Z,81.00
2018-11-29T06:46:04.706Z,80.90
2018-11-29T06:48:33.226Z,80.80
2018-11-29T06:51:01.738Z,80.80
2018-11-29T06:53:35.658Z,80.80
2018-11-29T06:56:04.237Z,80.70
2018-11-29T06:58:32.738Z,80.70
2018-11-29T07:01:01.261Z,80.80
2018-11-29T07:03:29.776Z,80.70
2018-11-29T07:05:58.277Z,80.80
2018-11-29T07:08:26.771Z,80.70
2018-11-29T07:10:55.306Z,80.60
2018-11-29T07:13:23.837Z,80.70
2018-11-29T07:15:52.349Z,80.60
2018-11-29T07:18:20.854Z,80.50
2018-11-29T07:21:00.658Z,80.50
2018-11-29T07:23:29.138Z,80.40
2018-11-29T07:25:57.637Z,80.30
2018-11-29T07:28:26.185Z,80.30
2018-11-29T07:30:54.686Z,80.40
2018-11-29T07:33:23.246Z,80.40
2018-11-29T07:35:51.761Z,80.30
2018-11-29T07:38:20.278Z,80.40
2018-11-29T07:40:48.789Z,80.30
2018-11-29T07:43:17.261Z,80.20
2018-11-29T07:45:45.773Z,80.40
2018-11-29T07:48:14.296Z,80.10
2018-11-29T07:50:42.825Z,80.20
2018-11-29T07:53:11.336Z,80.00
2018-11-29T07:55:40.609Z,79.80
2018-11-29T07:58:09.117Z,79.80
2018-11-29T08:00:37.644Z,79.50
2018-11-29T08:03:06.164Z,79.50
2018-11-29T08:05:36.466Z,79.40
2018-11-29T08:08:05.360Z,79.30
2018-11-29T08:10:33.865Z,79.10
2018-11-29T08:13:02.400Z,78.90
2018-11-29T08:15:30.913Z,78.90
2018-11-29T08:17:59.401Z,78.80
2018-11-29T08:20:27.936Z,78.60
2018-11-29T08:22:56.491Z,78.50
2018-11-29T08:25:24.999Z,78.10
2018-11-29T08:27:53.549Z,78.50
2018-11-29T08:30:22.079Z,78.30
2018-11-29T08:32:50.568Z,78.00
2018-11-29T08:35:19.088Z,77.80
2018-11-29T08:37:47.943Z,77.40
2018-11-29T08:40:20.352Z,77.20
2018-11-29T08:42:48.936Z,77.10
2018-11-29T08:45:17.459Z,76.90
2018-11-29T08:47:46.259Z,76.90
2018-11-29T08:50:15.353Z,76.90
2018-11-29T08:52:44.749Z,76.80
2018-11-29T08:55:16.283Z,76.90
2018-11-29T08:57:45.052Z,76.50
2018-11-29T09:00:14.582Z,76.20
2018-11-29T09:02:43.099Z,76.30
2018-11-29T09:05:12.348Z,76.30
2018-11-29T09:07:41.153Z,76.30
2018-11-29T09:10:16.718Z,76.30
2018-11-29T09:12:45.247Z,76.00
2018-11-29T09:15:14.803Z,75.60
2018-11-29T09:17:43.312Z,75.40
2018-11-29T09:20:13.024Z,75.20
2018-11-29T09:22:41.728Z,75.10
2018-11-29T09:25:11.652Z,75.30
2018-11-29T09:27:40.161Z,75.20
2018-11-29T09:30:12.899Z,75.30
2018-11-29T09:32:42.182Z,74.90
2018-11-29T09:35:10.787Z,74.70
2018-11-29T09:37:39.299Z,74.50
2018-11-29T09:40:10.120Z,74.50
2018-11-29T09:42:39.027Z,74.40
2018-11-29T09:45:12.811Z,74.40
2018-11-29T09:47:41.339Z,74.40
2018-11-29T09:50:11.207Z,74.40
2018-11-29T09:52:40.205Z,73.90
2018-11-29T09:55:09.767Z,73.80
2018-11-29T09:57:38.285Z,73.40
2018-11-29T10:00:11.687Z,73.30
2018-11-29T10:02:40.219Z,73.30
2018-11-29T10:05:09.826Z,73.60
2018-11-29T10:07:38.319Z,72.90
2018-11-29T10:10:08.719Z,72.70
2018-11-29T10:12:37.250Z,72.40
2018-11-29T10:15:07.411Z,72.50
2018-11-29T10:17:35.903Z,72.20
2018-11-29T10:20:05.003Z,71.80
2018-11-29T10:22:33.499Z,71.60
2018-11-29T10:25:02.017Z,71.20
2018-11-29T10:27:30.502Z,70.90
2018-11-29T10:29:59.035Z,70.40
2018-11-29T10:32:27.770Z,70.20
2018-11-29T10:34:56.310Z,70.00
2018-11-29T10:37:24.835Z,69.40
2018-11-29T10:39:53.334Z,69.30
2018-11-29T10:42:21.835Z,69.00
2018-11-29T10:44:50.352Z,68.80
2018-11-29T10:47:18.843Z,68.40
2018-11-29T10:49:47.351Z,68.10
2018-11-29T10:52:15.858Z,67.80
2018-11-29T10:54:44.401Z,67.30
2018-11-29T10:57:12.902Z,66.90
2018-11-29T10:59:41.390Z,66.90
2018-11-29T11:02:18.170Z,66.80
2018-11-29T11:04:46.703Z,66.50
2018-11-29T11:07:15.205Z,66.30
2018-11-29T11:09:43.737Z,65.70
2018-11-29T11:12:12.330Z,65.30
2018-11-29T11:14:40.828Z,65.00
2018-11-29T11:17:09.338Z,71.80
2018-11-29T11:19:37.866Z,64.70
2018-11-29T11:22:06.630Z,64.70
2018-11-29T11:24:35.118Z,64.20
2018-11-29T11:27:03.642Z,63.60
2018-11-29T11:29:32.134Z,63.30
2018-11-29T11:32:00.622Z,62.80
2018-11-29T11:34:29.125Z,62.90
2018-11-29T11:36:57.606Z,62.30
2018-11-29T11:39:26.110Z,62.40
2018-11-29T11:41:54.623Z,62.40
2018-11-29T11:44:23.178Z,62.40
2018-11-29T11:46:51.662Z,62.10
2018-11-29T11:49:20.147Z,61.40
2018-11-29T11:51:48.646Z,60.90
2018-11-29T11:54:17.198Z,60.80
2018-11-29T11:56:45.701Z,60.40
2018-11-29T11:59:14.173Z,59.60
2018-11-29T12:01:42.678Z,59.20
2018-11-29T12:04:11.174Z,59.30
2018-11-29T12:06:39.689Z,59.00
2018-11-29T12:09:08.877Z,59.00
2018-11-29T12:11:37.395Z,59.00
2018-11-29T12:14:05.997Z,58.60
2018-11-29T12:16:34.465Z,58.00
2018-11-29T12:19:02.981Z,57.90
2018-11-29T12:21:31.471Z,57.90
2018-11-29T12:23:59.987Z,57.60
2018-11-29T12:26:28.491Z,57.40
2018-11-29T12:28:57.001Z,57.30
2018-11-29T12:31:25.498Z,57.40
2018-11-29T12:33:54.009Z,57.70
2018-11-29T12:36:22.623Z,58.00
2018-11-29T12:38:51.130Z,58.40
2018-11-29T12:41:19.633Z,58.70
2018-11-29T12:43:48.152Z,58.70
2018-11-29T12:46:16.716Z,58.90
2018-11-29T12:48:45.205Z,59.00
2018-11-29T12:51:13.709Z,58.90
2018-11-29T12:53:42.213Z,58.90
2018-11-29T12:56:10.713Z,59.00
2018-11-29T12:58:39.229Z,58.90
2018-11-29T13:01:07.761Z,58.90
2018-11-29T13:03:36.305Z,59.20
2018-11-29T13:06:05.232Z,59.40
2018-11-29T13:08:33.736Z,59.60
2018-11-29T13:11:02.230Z,60.00
2018-11-29T13:13:30.745Z,59.90
2018-11-29T13:15:59.248Z,60.00
2018-11-29T13:18:27.767Z,60.40
2018-11-29T13:21:01.093Z,60.50
2018-11-29T13:23:29.636Z,60.60
2018-11-29T13:25:58.255Z,60.90
2018-11-29T13:28:26.764Z,61.10
2018-11-29T13:30:55.272Z,61.30
2018-11-29T13:33:23.764Z,61.50
2018-11-29T13:35:52.288Z,61.50
2018-11-29T13:38:20.804Z,61.50
2018-11-29T13:40:51.048Z,61.70
2018-11-29T13:43:18.656Z,61.80
2018-11-29T13:45:47.167Z,62.00
2018-11-29T13:48:15.667Z,62.10
2018-11-29T13:50:44.187Z,62.30
2018-11-29T13:53:12.727Z,62.40
2018-11-29T13:55:41.351Z,62.40
2018-11-29T13:58:09.796Z,62.60
2018-11-29T14:00:38.327Z,62.70
2018-11-29T14:03:11.205Z,62.80
2018-11-29T14:05:41.303Z,62.90
2018-11-29T14:08:10.255Z,63.00
2018-11-29T14:10:39.790Z,63.20
2018-11-29T14:13:08.983Z,63.20
2018-11-29T14:15:37.754Z,63.30
2018-11-29T14:18:06.723Z,63.40
2018-11-29T14:20:35.690Z,63.50
2018-11-29T14:23:04.223Z,63.70
2018-11-29T14:25:32.822Z,63.80
2018-11-29T14:28:01.331Z,64.00
2018-11-29T14:30:30.494Z,64.10
2018-11-29T14:33:00.151Z,64.30
2018-11-29T14:35:28.679Z,64.30
2018-11-29T14:37:57.174Z,65.10
2018-11-29T14:40:26.854Z,64.40
2018-11-29T14:42:55.350Z,64.40
2018-11-29T14:45:24.938Z,64.40
2018-11-29T14:47:53.482Z,64.40
2018-11-29T14:50:28.946Z,65.40
2018-11-29T14:52:57.483Z,64.50
2018-11-29T14:55:26.003Z,64.60
2018-11-29T14:57:54.510Z,64.50
2018-11-29T15:00:23.022Z,64.50
2018-11-29T15:02:51.517Z,64.50
2018-11-29T15:05:22.549Z,64.50
2018-11-29T15:07:51.415Z,64.50
2018-11-29T15:10:19.925Z,64.60
2018-11-29T15:12:48.422Z,64.60
2018-11-29T15:15:16.958Z,64.60
2018-11-29T15:17:45.980Z,64.80
2018-11-29T15:20:47.922Z,64.70
2018-11-29T15:23:17.719Z,64.70
2018-11-29T15:25:46.295Z,64.60
2018-11-29T15:28:14.814Z,64.40
2018-11-29T15:30:43.381Z,64.60
2018-11-29T15:33:11.906Z,64.60
2018-11-29T15:35:40.421Z,64.50
2018-11-29T15:38:08.993Z,64.60
2018-11-29T15:40:37.516Z,64.50
2018-11-29T15:43:06.041Z,64.60
2018-11-29T15:45:34.599Z,65.40
2018-11-29T15:48:03.118Z,64.50
2018-11-29T15:50:31.623Z,64.50
2018-11-29T15:53:00.161Z,65.20
2018-11-29T15:55:28.681Z,64.40
2018-11-29T15:57:57.981Z,64.30
2018-11-29T16:00:27.633Z,64.20
2018-11-29T16:02:58.205Z,64.00
2018-11-29T16:05:26.737Z,63.90
2018-11-29T16:07:55.256Z,63.90
2018-11-29T16:10:24.742Z,63.90
2018-11-29T16:12:53.257Z,63.70
2018-11-29T16:15:21.962Z,63.60
2018-11-29T16:17:51.361Z,63.50
2018-11-29T16:20:28.021Z,63.40
2018-11-29T16:22:56.713Z,63.40
2018-11-29T16:25:25.265Z,63.30
2018-11-29T16:27:53.765Z,63.40
2018-11-29T16:30:32.265Z,63.50
2018-11-29T16:33:09.112Z,63.40
2018-11-29T16:35:37.657Z,63.30
2018-11-29T16:38:06.888Z,63.30
2018-11-29T16:40:35.939Z,63.20
2018-11-29T16:43:04.496Z,63.20
2018-11-29T16:45:33.011Z,63.20
2018-11-29T16:48:01.539Z,63.20
2018-11-29T16:50:30.128Z,63.10
2018-11-29T16:52:58.649Z,63.00
2018-11-29T16:55:27.164Z,63.00
2018-11-29T16:57:57.803Z,62.90
2018-11-29T17:00:26.352Z,62.90
2018-11-29T17:02:54.884Z,62.80
2018-11-29T17:05:23.508Z,62.80
2018-11-29T17:07:52.020Z,62.70
2018-11-29T17:10:21.872Z,62.80
2018-11-29T17:12:53.024Z,62.80
2018-11-29T17:15:21.567Z,62.80
2018-11-29T17:17:50.150Z,62.80
2018-11-29T17:20:19.640Z,62.80
2018-11-29T17:22:49.127Z,62.90
2018-11-29T17:25:17.630Z,62.90
2018-11-29T17:27:46.155Z,62.90
2018-11-29T17:30:17.840Z,62.80
2018-11-29T17:32:46.507Z,62.90
2018-11-29T17:35:15.011Z,62.80
2018-11-29T17:37:43.610Z,62.90
2018-11-29T17:40:15.975Z,62.90
2018-11-29T17:42:44.563Z,63.00
2018-11-29T17:45:16.320Z,63.00
2018-11-29T17:47:45.310Z,63.00
2018-11-29T17:50:21.103Z,63.00
2018-11-29T17:52:49.667Z,63.00
2018-11-29T17:55:18.207Z,63.10
2018-11-29T17:57:46.726Z,63.20
2018-11-29T18:00:18.427Z,63.20
2018-11-29T18:02:46.959Z,63.20
2018-11-29T18:05:15.479Z,63.20
2018-11-29T18:07:43.986Z,63.20
2018-11-29T18:10:27.462Z,63.30
2018-11-29T18:13:01.787Z,63.30
2018-11-29T18:15:32.675Z,63.30
2018-11-29T18:18:01.206Z,64.20
2018-11-29T18:20:29.724Z,63.40
2018-11-29T18:22:58.246Z,63.50
2018-11-29T18:25:26.922Z,63.50
2018-11-29T18:27:55.510Z,63.60
2018-11-29T18:30:24.057Z,63.70
2018-11-29T18:32:52.609Z,63.70
2018-11-29T18:35:21.110Z,63.80
2018-11-29T18:37:50.143Z,63.80
2018-11-29T18:40:19.166Z,64.70
2018-11-29T18:42:56.675Z,63.90
2018-11-29T18:45:25.273Z,64.00
2018-11-29T18:47:54.297Z,64.00
2018-11-29T18:50:24.507Z,64.00
2018-11-29T18:52:53.473Z,64.00
2018-11-29T18:55:22.953Z,64.00
2018-11-29T18:57:51.689Z,64.10
2018-11-29T19:00:32.441Z,64.20
2018-11-29T19:03:00.961Z,64.20
2018-11-29T19:05:29.544Z,64.20
2018-11-29T19:07:58.108Z,64.20
2018-11-29T19:10:26.703Z,64.20
2018-11-29T19:12:57.627Z,64.10
2018-11-29T19:15:26.172Z,64.10
2018-11-29T19:17:54.724Z,64.30
2018-11-29T19:20:23.281Z,64.30
2018-11-29T19:22:51.799Z,64.40
2018-11-29T19:25:20.676Z,64.40
2018-11-29T19:27:49.220Z,64.40
2018-11-29T19:30:20.844Z,64.40
2018-11-29T19:32:54.199Z,64.40
2018-11-29T19:35:22.825Z,64.30
2018-11-29T19:37:51.288Z,64.30
2018-11-29T19:40:19.795Z,64.30
2018-11-29T19:42:48.363Z,64.40
2018-11-29T19:45:16.919Z,64.30
2018-11-29T19:47:45.455Z,64.30
2018-11-29T19:50:19.583Z,64.30
2018-11-29T19:52:51.207Z,64.30
2018-11-29T19:55:21.324Z,64.30
2018-11-29T19:57:49.895Z,64.40
2018-11-29T20:00:18.486Z,64.40
2018-11-29T20:02:47.806Z,64.40
2018-11-29T20:05:16.326Z,64.40
2018-11-29T20:07:44.835Z,64.40
2018-11-29T20:10:15.458Z,64.40
2018-11-29T20:12:44.578Z,64.40
2018-11-29T20:15:15.430Z,64.40
2018-11-29T20:17:43.934Z,64.40
2018-11-29T20:20:12.846Z,64.40
2018-11-29T20:22:41.806Z,64.40
2018-11-29T20:25:18.566Z,64.40
2018-11-29T20:27:47.053Z,64.40
2018-11-29T20:30:17.501Z,64.50
2018-11-29T20:32:46.496Z,64.50
2018-11-29T20:35:15.065Z,64.50
2018-11-29T20:37:43.544Z,64.50
2018-11-29T20:40:18.188Z,64.50
2018-11-29T20:42:47.919Z,64.50
2018-11-29T20:45:18.964Z,64.50
2018-11-29T20:47:47.484Z,64.50
2018-11-29T20:50:17.659Z,64.60
2018-11-29T20:52:46.634Z,64.60
2018-11-29T20:55:17.814Z,64.60
2018-11-29T20:57:46.341Z,64.70
2018-11-29T21:00:15.400Z,64.80
2018-11-29T21:02:44.017Z,64.90
2018-11-29T21:05:14.078Z,65.00
2018-11-29T21:07:44.818Z,65.00
2018-11-29T21:10:15.923Z,65.00
2018-11-29T21:12:44.428Z,65.00
2018-11-29T21:15:12.944Z,65.10
2018-11-29T21:17:41.447Z,65.10
2018-11-29T21:20:11.269Z,65.20
2018-11-29T21:22:39.856Z,65.20
2018-11-29T21:25:10.447Z,65.30
2018-11-29T21:27:38.976Z,65.30
2018-11-29T21:30:12.848Z,65.40
2018-11-29T21:32:41.391Z,65.50
2018-11-29T21:35:11.059Z,65.60
2018-11-29T21:37:39.704Z,65.60
2018-11-29T21:40:13.261Z,65.70
2018-11-29T21:42:41.751Z,65.80
2018-11-29T21:45:10.250Z,65.80
2018-11-29T21:47:38.738Z,66.00
2018-11-29T21:50:07.954Z,66.00
2018-11-29T21:52:36.466Z,66.10
2018-11-29T21:55:05.283Z,66.10
2018-11-29T21:57:33.762Z,66.10
2018-11-29T22:00:02.334Z,66.20
2018-11-29T22:02:30.826Z,66.20
2018-11-29T22:04:59.306Z,66.30
2018-11-29T22:07:27.804Z,66.40
2018-11-29T22:09:56.274Z,66.40
2018-11-29T22:12:24.770Z,66.50
2018-11-29T22:14:53.246Z,66.60
2018-11-29T22:17:21.782Z,67.40
2018-11-29T22:19:50.293Z,66.60
2018-11-29T22:22:18.802Z,67.50
2018-11-29T22:24:47.372Z,66.70
2018-11-29T22:27:15.857Z,66.80
2018-11-29T22:29:44.318Z,66.90
2018-11-29T22:32:12.794Z,66.90
2018-11-29T22:34:41.285Z,67.20
2018-11-29T22:37:09.798Z,67.10
2018-11-29T22:39:38.272Z,68.10
2018-11-29T22:42:06.805Z,67.20
2018-11-29T22:44:35.317Z,67.30
2018-11-29T22:47:03.845Z,67.30
2018-11-29T22:49:32.317Z,67.30
2018-11-29T22:52:00.840Z,67.40
2018-11-29T22:54:29.335Z,67.40
2018-11-29T22:56:57.823Z,67.50
2018-11-29T22:59:26.296Z,67.50
2018-11-29T23:01:54.788Z,67.60
2018-11-29T23:04:23.295Z,67.70
2018-11-29T23:06:51.768Z,67.80
2018-11-29T23:09:20.244Z,67.80
2018-11-29T23:11:48.744Z,67.90
2018-11-29T23:14:17.232Z,67.90
2018-11-29T23:16:45.707Z,68.00
2018-11-29T23:19:14.295Z,68.00
2018-11-29T23:21:42.775Z,68.10
2018-11-29T23:24:11.615Z,68.10
2018-11-29T23:26:40.104Z,68.20
2018-11-29T23:29:08.587Z,68.20
2018-11-29T23:31:37.076Z,68.30
2018-11-29T23:34:06.187Z,68.40
2018-11-29T23:36:34.692Z,68.40
2018-11-29T23:39:03.255Z,68.50
2018-11-29T23:41:31.752Z,68.50
2018-11-29T23:44:00.259Z,69.00
2018-11-29T23:46:28.757Z,68.60
2018-11-29T23:48:57.251Z,68.70
2018-11-29T23:51:25.767Z,68.60
2018-11-29T23:53:54.271Z,68.70
2018-11-29T23:56:22.759Z,68.70
2018-11-29T23:58:51.271Z,68.80
